createdAt,value
2022-10-09T00:01:12.565Z,6.47
2022-10-09T00:04:15.345Z,9.23
2022-10-09T00:07:18.201Z,8.02
2022-10-09T00:10:22.839Z,6.75
2022-10-09T00:13:26.005Z,6.00
2022-10-09T00:16:29.338Z,7.47
2022-10-09T00:19:32.156Z,7.75
2022-10-09T00:22:35.149Z,5.50
2022-10-09T00:25:39.353Z,5.68
2022-10-09T00:28:42.253Z,7.55
2022-10-09T00:31:45.114Z,6.15
2022-10-09T00:34:48.007Z,5.60
2022-10-09T00:37:50.853Z,6.95
2022-10-09T00:40:55.094Z,5.40
2022-10-09T00:43:59.983Z,5.88
2022-10-09T00:47:02.788Z,4.53
2022-10-09T00:50:12.813Z,5.13
2022-10-09T00:53:19.195Z,6.88
2022-10-09T00:56:23.822Z,6.18
2022-10-09T00:59:27.175Z,5.97
2022-10-09T01:02:30.157Z,4.95
2022-10-09T01:05:54.990Z,5.15
2022-10-09T01:09:04.595Z,4.75
2022-10-09T01:12:16.217Z,6.53
2022-10-09T01:15:21.755Z,5.47
2022-10-09T01:18:31.227Z,5.32
2022-10-09T01:21:41.231Z,4.72
2022-10-09T01:24:53.247Z,4.25
2022-10-09T01:27:58.064Z,4.50
2022-10-09T01:31:04.436Z,4.53
2022-10-09T01:34:09.498Z,5.28
2022-10-09T01:37:14.389Z,6.95
2022-10-09T01:40:18.943Z,4.68
2022-10-09T01:43:23.188Z,4.53
2022-10-09T01:46:28.970Z,6.35
2022-10-09T01:49:42.333Z,4.22
2022-10-09T01:52:49.898Z,5.68
2022-10-09T01:56:00.192Z,3.65
2022-10-09T01:59:14.808Z,6.72
2022-10-09T02:02:19.535Z,5.50
2022-10-09T02:05:24.727Z,5.40
2022-10-09T02:08:27.525Z,5.18
2022-10-09T02:11:33.207Z,5.63
2022-10-09T02:14:39.401Z,3.90
2022-10-09T02:17:47.660Z,5.18
2022-10-09T02:20:57.701Z,5.32
2022-10-09T02:24:02.768Z,5.35
2022-10-09T02:27:05.992Z,4.20
2022-10-09T02:30:12.188Z,5.15
2022-10-09T02:33:15.081Z,3.92
2022-10-09T02:36:17.861Z,4.57
2022-10-09T02:39:20.657Z,3.60
2022-10-09T02:42:23.441Z,3.42
2022-10-09T02:45:27.716Z,5.07
2022-10-09T02:48:30.566Z,4.32
2022-10-09T02:51:33.491Z,5.25
2022-10-09T02:54:36.407Z,4.15
2022-10-09T02:57:39.214Z,5.30
2022-10-09T03:00:43.410Z,3.47
2022-10-09T03:03:46.560Z,4.70
2022-10-09T03:06:49.399Z,4.07
2022-10-09T03:09:52.680Z,4.60
2022-10-09T03:12:55.471Z,3.70
2022-10-09T03:16:05.147Z,3.35
2022-10-09T03:19:08.120Z,4.00
2022-10-09T03:22:10.893Z,5.50
2022-10-09T03:25:13.763Z,3.67
2022-10-09T03:28:16.580Z,4.40
2022-10-09T03:31:50.006Z,3.70
2022-10-09T03:34:46.333Z,4.35
2022-10-09T03:37:49.639Z,5.07
2022-10-09T03:40:52.425Z,4.70
2022-10-09T03:43:55.189Z,3.67
2022-10-09T03:46:59.362Z,4.47
2022-10-09T03:50:02.233Z,4.22
2022-10-09T03:53:05.063Z,4.40
2022-10-09T03:56:08.091Z,4.43
2022-10-09T03:59:11.321Z,6.53
2022-10-09T04:02:15.508Z,3.15
2022-10-09T04:05:18.605Z,2.85
2022-10-09T04:08:21.411Z,5.00
2022-10-09T04:11:24.443Z,4.53
2022-10-09T04:14:27.241Z,3.85
2022-10-09T04:17:31.557Z,3.25
2022-10-09T04:20:34.356Z,3.42
2022-10-09T04:23:37.645Z,3.10
2022-10-09T04:26:40.444Z,3.35
2022-10-09T04:29:43.480Z,3.72
2022-10-09T04:32:49.135Z,3.05
2022-10-09T04:35:54.485Z,3.97
2022-10-09T04:38:57.354Z,2.70
2022-10-09T04:42:00.117Z,3.53
2022-10-09T04:45:03.037Z,2.83
2022-10-09T04:48:07.237Z,3.63
2022-10-09T04:51:10.726Z,2.75
2022-10-09T04:54:13.681Z,2.75
2022-10-09T04:57:16.467Z,2.83
2022-10-09T05:00:19.395Z,3.67
2022-10-09T05:03:23.614Z,3.38
2022-10-09T05:06:26.824Z,2.60
2022-10-09T05:09:29.620Z,4.63
2022-10-09T05:12:32.490Z,4.18
2022-10-09T05:15:37.991Z,3.65
2022-10-09T05:18:44.613Z,2.30
2022-10-09T05:21:47.392Z,3.20
2022-10-09T05:24:50.190Z,5.00
2022-10-09T05:27:53.081Z,2.58
2022-10-09T05:30:56.128Z,2.60
2022-10-09T05:34:01.756Z,3.80
2022-10-09T05:37:04.657Z,2.90
2022-10-09T05:40:08.959Z,3.25
2022-10-09T05:43:11.826Z,2.15
2022-10-09T05:46:17.110Z,2.88
2022-10-09T05:49:21.393Z,3.60
2022-10-09T05:52:24.206Z,2.75
2022-10-09T05:55:27.886Z,2.65
2022-10-09T05:58:30.679Z,2.80
2022-10-09T06:01:36.026Z,3.13
2022-10-09T06:04:40.369Z,2.80
2022-10-09T06:07:43.185Z,2.28
2022-10-09T06:10:45.953Z,4.05
2022-10-09T06:13:49.231Z,2.33
2022-10-09T06:16:52.559Z,3.08
2022-10-09T06:19:56.799Z,2.25
2022-10-09T06:22:59.552Z,2.60
2022-10-09T06:26:03.892Z,3.13
2022-10-09T06:29:06.780Z,3.35
2022-10-09T06:32:09.566Z,3.58
2022-10-09T06:35:13.817Z,4.43
2022-10-09T06:38:18.072Z,3.90
2022-10-09T06:41:22.945Z,2.42
2022-10-09T06:44:25.913Z,3.08
2022-10-09T06:47:28.693Z,3.28
2022-10-09T06:50:36.587Z,4.10
2022-10-09T06:53:41.052Z,2.40
2022-10-09T06:56:44.508Z,2.95
2022-10-09T06:59:50.126Z,2.72
2022-10-09T07:02:53.593Z,3.70
2022-10-09T07:06:06.714Z,2.72
2022-10-09T07:09:12.371Z,3.13
2022-10-09T07:12:15.213Z,2.22
2022-10-09T07:15:18.147Z,2.95
2022-10-09T07:18:20.945Z,2.90
2022-10-09T07:21:25.163Z,2.75
2022-10-09T07:24:28.361Z,3.95
2022-10-09T07:27:31.340Z,3.13
2022-10-09T07:30:34.195Z,2.95
2022-10-09T07:33:37.074Z,4.50
2022-10-09T07:36:41.235Z,2.25
2022-10-09T07:39:45.091Z,2.22
2022-10-09T07:42:48.326Z,3.15
2022-10-09T07:45:51.370Z,2.13
2022-10-09T07:48:54.293Z,2.58
2022-10-09T07:51:58.447Z,3.55
2022-10-09T07:55:01.332Z,3.28
2022-10-09T07:58:04.333Z,3.22
2022-10-09T08:01:08.104Z,2.25
2022-10-09T08:04:10.964Z,4.05
2022-10-09T08:07:15.266Z,2.47
2022-10-09T08:10:18.231Z,2.97
2022-10-09T08:13:21.193Z,3.30
2022-10-09T08:16:26.307Z,3.08
2022-10-09T08:19:29.076Z,3.58
2022-10-09T08:22:33.525Z,4.43
2022-10-09T08:25:36.977Z,3.80
2022-10-09T08:28:39.922Z,5.47
2022-10-09T08:31:42.920Z,7.45
2022-10-09T08:34:45.896Z,7.68
2022-10-09T08:37:50.276Z,13.98
2022-10-09T08:40:58.698Z,7.28
2022-10-09T08:44:04.422Z,7.45
2022-10-09T08:47:13.028Z,5.13
2022-10-09T08:50:20.089Z,6.50
2022-10-09T08:53:35.025Z,6.57
2022-10-09T08:56:39.150Z,8.75
2022-10-09T08:59:42.727Z,8.38
2022-10-09T09:03:07.750Z,7.18
2022-10-09T09:06:15.895Z,8.63
2022-10-09T09:09:28.702Z,8.75
2022-10-09T09:12:37.221Z,5.18
2022-10-09T09:15:48.439Z,8.43
2022-10-09T09:19:03.721Z,8.05
2022-10-09T09:22:11.080Z,6.13
2022-10-09T09:25:21.076Z,5.25
2022-10-09T09:28:29.276Z,4.90
2022-10-09T09:31:37.515Z,6.13
2022-10-09T09:34:42.887Z,4.05
2022-10-09T09:37:45.718Z,3.25
2022-10-09T09:40:50.774Z,4.63
2022-10-09T09:43:53.557Z,5.68
2022-10-09T09:46:56.502Z,6.47
2022-10-09T09:50:01.424Z,5.97
2022-10-09T09:53:15.461Z,3.47
2022-10-09T09:56:20.592Z,4.40
2022-10-09T09:59:34.040Z,5.55
2022-10-09T10:02:36.905Z,4.28
2022-10-09T10:05:40.916Z,6.47
2022-10-09T10:08:46.801Z,4.90
2022-10-09T10:11:56.470Z,5.07
2022-10-09T10:14:59.413Z,4.60
2022-10-09T10:18:04.601Z,7.07
2022-10-09T10:21:14.110Z,6.00
2022-10-09T10:24:22.425Z,4.93
2022-10-09T10:27:34.573Z,3.33
2022-10-09T10:30:39.101Z,3.95
2022-10-09T10:33:44.827Z,10.70
2022-10-09T10:36:48.571Z,30.17
2022-10-09T10:39:59.109Z,15.60
2022-10-09T10:43:24.405Z,13.23
2022-10-09T10:46:31.182Z,11.95
2022-10-09T10:49:34.438Z,16.10
2022-10-09T10:52:44.507Z,16.73
2022-10-09T10:55:54.447Z,15.85
2022-10-09T10:59:19.284Z,15.77
2022-10-09T11:02:51.139Z,11.70
2022-10-09T11:06:00.406Z,17.83
2022-10-09T11:09:12.863Z,17.08
2022-10-09T11:12:46.721Z,9.85
2022-10-09T11:16:02.326Z,12.20
2022-10-09T11:19:21.190Z,14.85
2022-10-09T11:22:41.647Z,21.20
2022-10-09T11:25:52.881Z,21.27
2022-10-09T11:29:02.885Z,21.85
2022-10-09T11:32:15.041Z,15.90
2022-10-09T11:35:22.483Z,14.77
2022-10-09T11:38:29.657Z,15.05
2022-10-09T11:41:35.730Z,13.73
2022-10-09T11:44:48.450Z,11.90
2022-10-09T11:48:00.602Z,14.13
2022-10-09T11:51:12.927Z,14.95
2022-10-09T11:54:19.541Z,8.27
2022-10-09T11:57:29.386Z,12.57
2022-10-09T12:00:33.999Z,8.40
2022-10-09T12:03:40.147Z,13.90
2022-10-09T12:06:47.977Z,12.57
2022-10-09T12:09:50.940Z,12.70
2022-10-09T12:12:59.621Z,8.02
2022-10-09T12:16:02.543Z,17.00
2022-10-09T12:19:16.534Z,12.38
2022-10-09T12:22:22.866Z,17.23
2022-10-09T12:25:30.446Z,9.63
2022-10-09T12:28:37.453Z,9.65
2022-10-09T12:31:42.420Z,12.55
2022-10-09T12:34:48.765Z,12.20
2022-10-09T12:37:51.710Z,14.70
2022-10-09T12:40:56.622Z,14.18
2022-10-09T12:44:00.217Z,9.93
2022-10-09T12:47:07.312Z,9.18
2022-10-09T12:50:24.413Z,8.90
2022-10-09T12:53:29.940Z,11.40
2022-10-09T12:56:35.865Z,11.25
2022-10-09T12:59:39.001Z,6.97
2022-10-09T13:02:41.974Z,13.10
2022-10-09T13:05:46.244Z,9.60
2022-10-09T13:08:55.054Z,12.48
2022-10-09T13:12:01.513Z,15.20
2022-10-09T13:15:06.522Z,9.45
2022-10-09T13:18:22.771Z,10.85
2022-10-09T13:21:31.336Z,23.10
2022-10-09T13:24:37.196Z,21.33
2022-10-09T13:27:40.781Z,14.00
2022-10-09T13:30:43.701Z,10.30
2022-10-09T13:33:47.981Z,12.43
2022-10-09T13:36:52.413Z,8.15
2022-10-09T13:39:56.235Z,13.75
2022-10-09T13:43:04.132Z,8.27
2022-10-09T13:46:07.438Z,11.80
2022-10-09T13:49:11.079Z,16.77
2022-10-09T13:52:15.311Z,13.38
2022-10-09T13:55:18.380Z,18.52
2022-10-09T13:58:21.710Z,14.95
2022-10-09T14:01:24.646Z,15.25
2022-10-09T14:04:28.098Z,15.55
2022-10-09T14:07:32.511Z,16.20
2022-10-09T14:10:35.345Z,17.63
2022-10-09T14:13:38.237Z,17.73
2022-10-09T14:16:41.194Z,17.90
2022-10-09T14:19:43.986Z,23.40
2022-10-09T14:22:48.486Z,15.73
2022-10-09T14:25:51.555Z,14.88
2022-10-09T14:28:54.653Z,10.63
2022-10-09T14:31:57.561Z,29.77
2022-10-09T14:35:00.429Z,16.38
2022-10-09T14:38:04.686Z,14.45
2022-10-09T14:41:09.084Z,14.55
2022-10-09T14:44:12.101Z,24.90
2022-10-09T14:47:15.021Z,20.27
2022-10-09T14:50:18.078Z,13.30
2022-10-09T14:53:22.233Z,12.20
2022-10-09T14:56:26.227Z,17.05
2022-10-09T14:59:30.616Z,18.05
2022-10-09T15:02:33.512Z,16.98
2022-10-09T15:05:36.490Z,15.75
2022-10-09T15:08:42.531Z,11.98
2022-10-09T15:11:45.396Z,13.02
2022-10-09T15:14:48.451Z,17.30
2022-10-09T15:17:51.412Z,10.48
2022-10-09T15:20:54.743Z,13.57
2022-10-09T15:24:00.698Z,9.85
2022-10-09T15:27:03.539Z,14.88
2022-10-09T15:30:07.299Z,11.90
2022-10-09T15:33:10.227Z,11.05
2022-10-09T15:36:12.997Z,11.70
2022-10-09T15:39:17.177Z,15.48
2022-10-09T15:42:20.142Z,7.45
2022-10-09T15:45:23.043Z,11.05
2022-10-09T15:48:26.258Z,14.40
2022-10-09T15:51:30.037Z,24.63
2022-10-09T15:54:34.548Z,21.80
2022-10-09T15:57:37.359Z,12.52
2022-10-09T16:00:43.831Z,14.13
2022-10-09T16:03:47.333Z,10.35
2022-10-09T16:06:50.154Z,13.85
2022-10-09T16:09:54.317Z,8.60
2022-10-09T16:12:57.167Z,17.77
2022-10-09T16:16:00.031Z,18.70
2022-10-09T16:19:05.094Z,21.20
2022-10-09T16:22:08.044Z,14.52
2022-10-09T16:25:12.495Z,15.00
2022-10-09T16:28:15.362Z,12.90
2022-10-09T16:31:23.589Z,17.00
2022-10-09T16:34:26.491Z,13.13
2022-10-09T16:37:29.541Z,10.68
2022-10-09T16:43:57.879Z,15.05
2022-10-09T16:47:00.684Z,12.38
2022-10-09T16:50:03.623Z,13.57
2022-10-09T16:53:06.525Z,11.15
2022-10-09T16:56:15.745Z,6.22
2022-10-09T16:59:18.591Z,11.27
2022-10-09T17:02:21.471Z,8.50
2022-10-09T17:05:25.467Z,12.75
2022-10-09T17:08:28.772Z,14.25
2022-10-09T17:11:32.964Z,7.00
2022-10-09T17:14:36.927Z,10.23
2022-10-09T17:17:39.776Z,9.88
2022-10-09T17:20:42.710Z,7.50
2022-10-09T17:23:46.530Z,5.75
2022-10-09T17:26:50.775Z,7.07
2022-10-09T17:29:53.764Z,10.98
2022-10-09T17:32:56.651Z,7.00
2022-10-09T17:35:59.709Z,12.52
2022-10-09T17:39:03.135Z,10.38
2022-10-09T17:42:07.813Z,8.32
2022-10-09T17:45:11.101Z,10.65
2022-10-09T17:48:14.410Z,11.23
2022-10-09T17:51:19.881Z,14.95
2022-10-09T17:54:22.789Z,12.38
2022-10-09T17:57:26.954Z,20.35
2022-10-09T18:00:29.803Z,18.30
2022-10-09T18:03:32.831Z,16.50
2022-10-09T18:06:36.083Z,15.10
2022-10-09T18:09:39.638Z,14.13
2022-10-09T18:12:43.969Z,7.22
2022-10-09T18:15:46.809Z,20.63
2022-10-09T18:18:49.876Z,29.98
2022-10-09T18:21:52.753Z,14.32
2022-10-09T18:24:55.523Z,17.48
2022-10-09T18:27:59.864Z,19.48
2022-10-09T18:31:06.045Z,19.30
2022-10-09T18:34:09.108Z,15.95
2022-10-09T18:37:11.917Z,14.40
2022-10-09T18:40:15.023Z,15.85
2022-10-09T18:43:19.148Z,16.90
2022-10-09T18:46:25.782Z,13.63
2022-10-09T18:49:31.305Z,13.50
2022-10-09T18:52:35.204Z,11.63
2022-10-09T18:55:38.154Z,13.43
2022-10-09T18:58:42.928Z,13.27
2022-10-09T19:01:45.785Z,12.30
2022-10-09T19:04:48.737Z,11.88
2022-10-09T19:07:52.094Z,13.55
2022-10-09T19:10:55.430Z,10.98
2022-10-09T19:14:00.730Z,13.13
2022-10-09T19:17:03.574Z,12.27
2022-10-09T19:20:07.180Z,9.18
2022-10-09T19:23:10.062Z,6.97
2022-10-09T19:26:13.912Z,9.25
2022-10-09T19:29:18.164Z,11.90
2022-10-09T19:32:23.832Z,7.28
2022-10-09T19:35:27.028Z,12.25
2022-10-09T19:38:30.418Z,9.77
2022-10-09T19:41:33.353Z,10.45
2022-10-09T19:44:37.602Z,7.68
2022-10-09T19:47:40.660Z,9.27
2022-10-09T19:50:44.212Z,10.95
2022-10-09T19:53:47.285Z,9.15
2022-10-09T19:56:50.673Z,10.35
2022-10-09T19:59:54.912Z,9.02
2022-10-09T20:02:57.798Z,7.05
2022-10-09T20:06:02.680Z,6.85
2022-10-09T20:09:06.167Z,10.40
2022-10-09T20:12:09.651Z,10.25
2022-10-09T20:15:14.361Z,8.82
2022-10-09T20:18:17.277Z,6.40
2022-10-09T20:21:20.137Z,7.13
2022-10-09T20:24:23.070Z,6.65
2022-10-09T20:27:26.449Z,7.90
2022-10-09T20:30:30.717Z,8.45
2022-10-09T20:33:34.171Z,7.57
2022-10-09T20:36:39.108Z,6.78
2022-10-09T20:39:42.150Z,10.63
2022-10-09T20:42:45.035Z,7.35
2022-10-09T20:45:49.304Z,6.07
2022-10-09T20:48:53.258Z,7.22
2022-10-09T20:51:56.758Z,5.28
2022-10-09T20:54:59.603Z,6.80
2022-10-09T20:58:02.784Z,9.77
2022-10-09T21:01:09.711Z,8.30
2022-10-09T21:04:12.852Z,6.70
2022-10-09T21:07:15.695Z,7.95
2022-10-09T21:10:18.582Z,7.70
2022-10-09T21:13:21.390Z,9.60
2022-10-09T21:16:26.003Z,6.25
2022-10-09T21:19:28.882Z,6.85
2022-10-09T21:22:31.863Z,6.53
2022-10-09T21:25:35.157Z,8.88
2022-10-09T21:28:38.011Z,13.02
2022-10-09T21:31:43.030Z,5.93
2022-10-09T21:34:47.594Z,9.40
2022-10-09T21:37:50.973Z,7.18
2022-10-09T21:40:53.860Z,6.10
2022-10-09T21:43:56.621Z,7.22
2022-10-09T21:47:00.868Z,8.90
2022-10-09T21:50:03.683Z,8.05
2022-10-09T21:53:06.464Z,8.30
2022-10-09T21:56:09.894Z,7.30
2022-10-09T21:59:12.726Z,8.50
2022-10-09T22:02:16.857Z,8.60
2022-10-09T22:05:19.720Z,8.93
2022-10-09T22:08:23.469Z,11.18
2022-10-09T22:11:26.285Z,6.82
2022-10-09T22:14:29.069Z,8.90
2022-10-09T22:17:33.244Z,5.68
2022-10-09T22:20:41.581Z,6.47
2022-10-09T22:23:45.028Z,8.38
2022-10-09T22:26:47.798Z,5.47
2022-10-09T22:29:50.565Z,6.97
2022-10-09T22:32:55.668Z,7.32
2022-10-09T22:36:09.716Z,4.78
2022-10-09T22:39:14.380Z,4.78
2022-10-09T22:42:17.210Z,8.05
2022-10-09T22:45:20.016Z,5.35
2022-10-09T22:48:24.242Z,5.63
2022-10-09T22:51:28.567Z,4.65
2022-10-09T22:54:31.375Z,6.13
2022-10-09T22:57:34.173Z,5.53
2022-10-09T23:00:37.559Z,6.75
2022-10-09T23:03:41.868Z,4.45
2022-10-09T23:06:45.713Z,6.13
2022-10-09T23:09:48.489Z,4.63
2022-10-09T23:12:51.710Z,5.78
2022-10-09T23:15:54.715Z,7.00
2022-10-09T23:19:05.423Z,7.10
2022-10-09T23:22:09.055Z,5.60
2022-10-09T23:25:11.871Z,4.60
2022-10-09T23:28:14.838Z,6.55
2022-10-09T23:31:17.715Z,7.15
2022-10-09T23:34:21.911Z,4.65
2022-10-09T23:37:24.781Z,5.65
2022-10-09T23:40:27.593Z,6.30
2022-10-09T23:43:31.567Z,5.78
2022-10-09T23:46:34.466Z,5.75
2022-10-09T23:49:39.413Z,5.43
2022-10-09T23:52:42.223Z,3.80
2022-10-09T23:55:45.167Z,4.75
2022-10-09T23:58:48.299Z,5.65
